sensor_id;sensor_type;location;lat;lon;timestamp;P1;durP1;ratioP1;P2;durP2;ratioP2
41629;SDS011;27322;49.488;8.480;2023-09-30T00:00:58;4.10;;;1.67;;
41629;SDS011;27322;49.488;8.480;2023-09-30T00:03:23;5.50;;;1.60;;
41629;SDS011;27322;49.488;8.480;2023-09-30T00:05:49;4.28;;;1.80;;
41629;SDS011;27322;49.488;8.480;2023-09-30T00:08:15;3.80;;;1.50;;
41629;SDS011;27322;49.488;8.480;2023-09-30T00:10:41;5.70;;;1.45;;
41629;SDS011;27322;49.488;8.480;2023-09-30T00:13:06;3.40;;;1.52;;
41629;SDS011;27322;49.488;8.480;2023-09-30T00:15:32;4.00;;;1.35;;
41629;SDS011;27322;49.488;8.480;2023-09-30T00:17:58;5.40;;;1.90;;
41629;SDS011;27322;49.488;8.480;2023-09-30T00:20:24;3.63;;;1.30;;
41629;SDS011;27322;49.488;8.480;2023-09-30T00:22:50;5.30;;;1.40;;
41629;SDS011;27322;49.488;8.480;2023-09-30T00:25:15;4.25;;;1.40;;
41629;SDS011;27322;49.488;8.480;2023-09-30T00:27:41;4.43;;;1.52;;
41629;SDS011;27322;49.488;8.480;2023-09-30T00:30:06;4.57;;;1.73;;
41629;SDS011;27322;49.488;8.480;2023-09-30T00:32:32;4.47;;;1.65;;
41629;SDS011;27322;49.488;8.480;2023-09-30T00:34:58;5.28;;;1.55;;
41629;SDS011;27322;49.488;8.480;2023-09-30T00:37:26;4.22;;;1.58;;
41629;SDS011;27322;49.488;8.480;2023-09-30T00:39:52;4.28;;;1.63;;
41629;SDS011;27322;49.488;8.480;2023-09-30T00:42:18;5.10;;;1.50;;
41629;SDS011;27322;49.488;8.480;2023-09-30T00:44:45;5.60;;;1.80;;
41629;SDS011;27322;49.488;8.480;2023-09-30T00:47:11;6.55;;;1.83;;
41629;SDS011;27322;49.488;8.480;2023-09-30T00:49:39;3.83;;;1.90;;
41629;SDS011;27322;49.488;8.480;2023-09-30T00:52:08;4.05;;;1.95;;
41629;SDS011;27322;49.488;8.480;2023-09-30T00:54:34;4.35;;;1.88;;
41629;SDS011;27322;49.488;8.480;2023-09-30T00:57:02;4.50;;;1.95;;
41629;SDS011;27322;49.488;8.480;2023-09-30T00:59:28;5.05;;;2.08;;
41629;SDS011;27322;49.488;8.480;2023-09-30T01:01:57;5.45;;;2.25;;
41629;SDS011;27322;49.488;8.480;2023-09-30T01:04:26;6.03;;;2.38;;
41629;SDS011;27322;49.488;8.480;2023-09-30T01:06:52;4.93;;;1.90;;
41629;SDS011;27322;49.488;8.480;2023-09-30T01:09:17;3.75;;;1.80;;
41629;SDS011;27322;49.488;8.480;2023-09-30T01:11:44;5.60;;;1.88;;
41629;SDS011;27322;49.488;8.480;2023-09-30T01:14:28;4.32;;;1.50;;
41629;SDS011;27322;49.488;8.480;2023-09-30T01:16:56;5.68;;;1.50;;
41629;SDS011;27322;49.488;8.480;2023-09-30T01:19:23;5.45;;;1.70;;
41629;SDS011;27322;49.488;8.480;2023-09-30T01:21:51;6.03;;;2.00;;
41629;SDS011;27322;49.488;8.480;2023-09-30T01:24:24;6.68;;;2.15;;
41629;SDS011;27322;49.488;8.480;2023-09-30T01:26:50;5.95;;;2.20;;
41629;SDS011;27322;49.488;8.480;2023-09-30T01:29:16;4.45;;;1.80;;
41629;SDS011;27322;49.488;8.480;2023-09-30T01:31:42;4.88;;;2.28;;
41629;SDS011;27322;49.488;8.480;2023-09-30T01:34:07;4.97;;;2.10;;
41629;SDS011;27322;49.488;8.480;2023-09-30T01:36:33;4.22;;;2.00;;
41629;SDS011;27322;49.488;8.480;2023-09-30T01:38:59;5.03;;;1.95;;
41629;SDS011;27322;49.488;8.480;2023-09-30T01:41:26;4.80;;;1.80;;
41629;SDS011;27322;49.488;8.480;2023-09-30T01:43:52;3.72;;;1.60;;
41629;SDS011;27322;49.488;8.480;2023-09-30T01:46:18;5.30;;;2.20;;
41629;SDS011;27322;49.488;8.480;2023-09-30T01:48:44;3.95;;;1.90;;
41629;SDS011;27322;49.488;8.480;2023-09-30T01:51:09;5.68;;;1.83;;
41629;SDS011;27322;49.488;8.480;2023-09-30T01:53:36;4.60;;;1.80;;
41629;SDS011;27322;49.488;8.480;2023-09-30T01:56:01;4.10;;;1.85;;
41629;SDS011;27322;49.488;8.480;2023-09-30T01:58:27;4.90;;;2.00;;
41629;SDS011;27322;49.488;8.480;2023-09-30T02:00:53;7.03;;;3.10;;
41629;SDS011;27322;49.488;8.480;2023-09-30T02:03:19;6.50;;;2.58;;
41629;SDS011;27322;49.488;8.480;2023-09-30T02:05:44;6.28;;;2.47;;
41629;SDS011;27322;49.488;8.480;2023-09-30T02:08:10;5.10;;;2.40;;
41629;SDS011;27322;49.488;8.480;2023-09-30T02:10:36;5.07;;;2.40;;
41629;SDS011;27322;49.488;8.480;2023-09-30T02:13:01;5.95;;;2.55;;
41629;SDS011;27322;49.488;8.480;2023-09-30T02:15:30;7.75;;;2.55;;
41629;SDS011;27322;49.488;8.480;2023-09-30T02:17:56;7.20;;;2.53;;
41629;SDS011;27322;49.488;8.480;2023-09-30T02:20:22;7.72;;;2.17;;
41629;SDS011;27322;49.488;8.480;2023-09-30T02:22:50;5.28;;;2.25;;
41629;SDS011;27322;49.488;8.480;2023-09-30T02:25:17;6.03;;;2.17;;
41629;SDS011;27322;49.488;8.480;2023-09-30T02:27:42;4.60;;;1.95;;
41629;SDS011;27322;49.488;8.480;2023-09-30T02:30:09;5.38;;;2.10;;
41629;SDS011;27322;49.488;8.480;2023-09-30T02:32:38;6.32;;;1.73;;
41629;SDS011;27322;49.488;8.480;2023-09-30T02:35:05;4.22;;;1.90;;
41629;SDS011;27322;49.488;8.480;2023-09-30T02:37:32;5.22;;;1.95;;
41629;SDS011;27322;49.488;8.480;2023-09-30T02:40:00;6.55;;;2.28;;
41629;SDS011;27322;49.488;8.480;2023-09-30T02:42:29;5.15;;;2.00;;
41629;SDS011;27322;49.488;8.480;2023-09-30T02:44:54;5.72;;;1.95;;
41629;SDS011;27322;49.488;8.480;2023-09-30T02:47:20;5.93;;;2.15;;
41629;SDS011;27322;49.488;8.480;2023-09-30T02:49:46;4.85;;;2.03;;
41629;SDS011;27322;49.488;8.480;2023-09-30T02:52:11;5.75;;;2.40;;
41629;SDS011;27322;49.488;8.480;2023-09-30T02:54:37;4.65;;;2.38;;
41629;SDS011;27322;49.488;8.480;2023-09-30T02:57:03;4.82;;;2.17;;
41629;SDS011;27322;49.488;8.480;2023-09-30T02:59:29;5.90;;;2.67;;
41629;SDS011;27322;49.488;8.480;2023-09-30T03:01:54;5.85;;;2.63;;
41629;SDS011;27322;49.488;8.480;2023-09-30T03:04:21;5.38;;;2.28;;
41629;SDS011;27322;49.488;8.480;2023-09-30T03:06:51;6.45;;;2.53;;
41629;SDS011;27322;49.488;8.480;2023-09-30T03:09:16;6.78;;;2.50;;
41629;SDS011;27322;49.488;8.480;2023-09-30T03:11:42;6.60;;;2.50;;
41629;SDS011;27322;49.488;8.480;2023-09-30T03:14:09;6.47;;;2.65;;
41629;SDS011;27322;49.488;8.480;2023-09-30T03:16:36;5.30;;;2.38;;
41629;SDS011;27322;49.488;8.480;2023-09-30T03:19:03;5.88;;;2.40;;
41629;SDS011;27322;49.488;8.480;2023-09-30T03:21:33;4.70;;;2.15;;
41629;SDS011;27322;49.488;8.480;2023-09-30T03:24:00;8.02;;;2.40;;
41629;SDS011;27322;49.488;8.480;2023-09-30T03:26:30;7.35;;;2.55;;
41629;SDS011;27322;49.488;8.480;2023-09-30T03:28:56;4.40;;;2.15;;
41629;SDS011;27322;49.488;8.480;2023-09-30T03:31:22;6.75;;;2.17;;
41629;SDS011;27322;49.488;8.480;2023-09-30T03:33:48;5.78;;;2.67;;
41629;SDS011;27322;49.488;8.480;2023-09-30T03:36:20;6.88;;;2.33;;
41629;SDS011;27322;49.488;8.480;2023-09-30T03:38:47;5.72;;;2.50;;
41629;SDS011;27322;49.488;8.480;2023-09-30T03:41:12;6.35;;;3.13;;
41629;SDS011;27322;49.488;8.480;2023-09-30T03:43:38;10.00;;;3.25;;
41629;SDS011;27322;49.488;8.480;2023-09-30T03:46:06;5.65;;;2.70;;
41629;SDS011;27322;49.488;8.480;2023-09-30T03:48:33;7.70;;;3.00;;
41629;SDS011;27322;49.488;8.480;2023-09-30T03:51:10;5.75;;;2.75;;
41629;SDS011;27322;49.488;8.480;2023-09-30T03:53:42;7.63;;;2.83;;
41629;SDS011;27322;49.488;8.480;2023-09-30T03:56:11;5.60;;;2.88;;
41629;SDS011;27322;49.488;8.480;2023-09-30T03:58:40;8.35;;;3.13;;
41629;SDS011;27322;49.488;8.480;2023-09-30T04:01:07;6.28;;;3.05;;
41629;SDS011;27322;49.488;8.480;2023-09-30T04:03:36;5.68;;;2.60;;
41629;SDS011;27322;49.488;8.480;2023-09-30T04:06:04;5.45;;;2.40;;
41629;SDS011;27322;49.488;8.480;2023-09-30T04:08:30;6.07;;;2.88;;
41629;SDS011;27322;49.488;8.480;2023-09-30T04:10:58;6.65;;;3.03;;
41629;SDS011;27322;49.488;8.480;2023-09-30T04:13:24;5.45;;;3.10;;
41629;SDS011;27322;49.488;8.480;2023-09-30T04:15:50;7.50;;;3.10;;
41629;SDS011;27322;49.488;8.480;2023-09-30T04:18:16;8.50;;;3.05;;
41629;SDS011;27322;49.488;8.480;2023-09-30T04:20:45;6.70;;;3.20;;
41629;SDS011;27322;49.488;8.480;2023-09-30T04:23:11;8.25;;;3.17;;
41629;SDS011;27322;49.488;8.480;2023-09-30T04:25:38;6.22;;;2.90;;
41629;SDS011;27322;49.488;8.480;2023-09-30T04:28:03;5.28;;;2.90;;
41629;SDS011;27322;49.488;8.480;2023-09-30T04:30:29;8.27;;;3.08;;
41629;SDS011;27322;49.488;8.480;2023-09-30T04:32:57;6.80;;;3.20;;
41629;SDS011;27322;49.488;8.480;2023-09-30T04:35:23;6.25;;;3.20;;
41629;SDS011;27322;49.488;8.480;2023-09-30T04:37:50;6.22;;;2.88;;
41629;SDS011;27322;49.488;8.480;2023-09-30T04:40:16;10.07;;;3.33;;
41629;SDS011;27322;49.488;8.480;2023-09-30T04:42:45;7.20;;;3.13;;
41629;SDS011;27322;49.488;8.480;2023-09-30T04:45:14;8.23;;;3.30;;
41629;SDS011;27322;49.488;8.480;2023-09-30T04:47:46;9.85;;;3.55;;
41629;SDS011;27322;49.488;8.480;2023-09-30T04:50:14;9.93;;;3.13;;
41629;SDS011;27322;49.488;8.480;2023-09-30T04:52:40;7.78;;;2.63;;
41629;SDS011;27322;49.488;8.480;2023-09-30T04:55:06;6.00;;;3.00;;
41629;SDS011;27322;49.488;8.480;2023-09-30T04:57:31;8.55;;;3.45;;
41629;SDS011;27322;49.488;8.480;2023-09-30T04:59:57;9.07;;;3.78;;
41629;SDS011;27322;49.488;8.480;2023-09-30T05:02:23;7.38;;;3.45;;
41629;SDS011;27322;49.488;8.480;2023-09-30T05:04:49;7.28;;;3.00;;
41629;SDS011;27322;49.488;8.480;2023-09-30T05:07:15;7.82;;;3.30;;
41629;SDS011;27322;49.488;8.480;2023-09-30T05:09:41;8.90;;;3.60;;
41629;SDS011;27322;49.488;8.480;2023-09-30T05:12:07;9.00;;;2.95;;
41629;SDS011;27322;49.488;8.480;2023-09-30T05:14:33;7.78;;;3.70;;
41629;SDS011;27322;49.488;8.480;2023-09-30T05:17:00;7.38;;;3.38;;
41629;SDS011;27322;49.488;8.480;2023-09-30T05:19:26;7.70;;;3.30;;
41629;SDS011;27322;49.488;8.480;2023-09-30T05:21:51;10.23;;;4.35;;
41629;SDS011;27322;49.488;8.480;2023-09-30T05:24:17;8.68;;;3.67;;
41629;SDS011;27322;49.488;8.480;2023-09-30T05:26:46;7.80;;;3.38;;
41629;SDS011;27322;49.488;8.480;2023-09-30T05:29:11;7.80;;;3.10;;
41629;SDS011;27322;49.488;8.480;2023-09-30T05:31:37;10.18;;;3.30;;
41629;SDS011;27322;49.488;8.480;2023-09-30T05:34:03;6.70;;;3.25;;
41629;SDS011;27322;49.488;8.480;2023-09-30T05:36:29;9.95;;;3.40;;
41629;SDS011;27322;49.488;8.480;2023-09-30T05:38:55;9.13;;;3.40;;
41629;SDS011;27322;49.488;8.480;2023-09-30T05:41:21;7.47;;;3.50;;
41629;SDS011;27322;49.488;8.480;2023-09-30T05:43:46;7.07;;;3.30;;
41629;SDS011;27322;49.488;8.480;2023-09-30T05:46:12;6.35;;;3.03;;
41629;SDS011;27322;49.488;8.480;2023-09-30T05:48:38;9.40;;;3.50;;
41629;SDS011;27322;49.488;8.480;2023-09-30T05:51:04;7.63;;;3.20;;
41629;SDS011;27322;49.488;8.480;2023-09-30T05:53:31;9.10;;;3.35;;
41629;SDS011;27322;49.488;8.480;2023-09-30T05:55:57;8.55;;;3.17;;
41629;SDS011;27322;49.488;8.480;2023-09-30T05:58:24;6.93;;;3.38;;
41629;SDS011;27322;49.488;8.480;2023-09-30T06:00:51;9.32;;;3.55;;
41629;SDS011;27322;49.488;8.480;2023-09-30T06:03:18;7.07;;;3.22;;
41629;SDS011;27322;49.488;8.480;2023-09-30T06:05:46;7.95;;;3.30;;
41629;SDS011;27322;49.488;8.480;2023-09-30T06:08:12;6.38;;;2.97;;
41629;SDS011;27322;49.488;8.480;2023-09-30T06:10:41;8.25;;;3.15;;
41629;SDS011;27322;49.488;8.480;2023-09-30T06:13:10;9.65;;;3.38;;
41629;SDS011;27322;49.488;8.480;2023-09-30T06:15:40;7.13;;;3.50;;
41629;SDS011;27322;49.488;8.480;2023-09-30T06:18:06;9.95;;;3.25;;
41629;SDS011;27322;49.488;8.480;2023-09-30T06:20:33;9.13;;;2.92;;
41629;SDS011;27322;49.488;8.480;2023-09-30T06:22:59;8.85;;;3.00;;
41629;SDS011;27322;49.488;8.480;2023-09-30T06:25:28;8.00;;;2.60;;
41629;SDS011;27322;49.488;8.480;2023-09-30T06:27:55;8.40;;;3.05;;
41629;SDS011;27322;49.488;8.480;2023-09-30T06:30:21;6.25;;;2.72;;
41629;SDS011;27322;49.488;8.480;2023-09-30T06:32:47;7.30;;;2.40;;
41629;SDS011;27322;49.488;8.480;2023-09-30T06:35:13;7.13;;;2.67;;
41629;SDS011;27322;49.488;8.480;2023-09-30T06:37:39;6.65;;;2.67;;
41629;SDS011;27322;49.488;8.480;2023-09-30T06:40:05;5.97;;;2.28;;
41629;SDS011;27322;49.488;8.480;2023-09-30T06:42:33;8.60;;;2.80;;
41629;SDS011;27322;49.488;8.480;2023-09-30T06:45:00;9.10;;;2.70;;
41629;SDS011;27322;49.488;8.480;2023-09-30T06:47:26;7.80;;;2.60;;
41629;SDS011;27322;49.488;8.480;2023-09-30T06:49:51;7.50;;;2.58;;
41629;SDS011;27322;49.488;8.480;2023-09-30T06:52:17;6.68;;;2.63;;
41629;SDS011;27322;49.488;8.480;2023-09-30T06:54:43;7.30;;;2.50;;
41629;SDS011;27322;49.488;8.480;2023-09-30T06:57:09;8.25;;;2.38;;
41629;SDS011;27322;49.488;8.480;2023-09-30T06:59:34;6.93;;;2.53;;
41629;SDS011;27322;49.488;8.480;2023-09-30T07:02:00;10.40;;;3.92;;
41629;SDS011;27322;49.488;8.480;2023-09-30T07:04:26;7.30;;;3.53;;
41629;SDS011;27322;49.488;8.480;2023-09-30T07:06:54;6.65;;;3.28;;
41629;SDS011;27322;49.488;8.480;2023-09-30T07:09:20;8.85;;;3.65;;
41629;SDS011;27322;49.488;8.480;2023-09-30T07:11:45;5.40;;;2.80;;
41629;SDS011;27322;49.488;8.480;2023-09-30T07:14:11;9.38;;;3.33;;
41629;SDS011;27322;49.488;8.480;2023-09-30T07:16:37;6.28;;;2.45;;
41629;SDS011;27322;49.488;8.480;2023-09-30T07:19:03;7.53;;;2.53;;
41629;SDS011;27322;49.488;8.480;2023-09-30T07:21:28;7.95;;;2.65;;
41629;SDS011;27322;49.488;8.480;2023-09-30T07:23:55;8.02;;;3.20;;
41629;SDS011;27322;49.488;8.480;2023-09-30T07:26:24;7.88;;;3.05;;
41629;SDS011;27322;49.488;8.480;2023-09-30T07:28:50;11.15;;;3.97;;
41629;SDS011;27322;49.488;8.480;2023-09-30T07:31:16;8.48;;;2.88;;
41629;SDS011;27322;49.488;8.480;2023-09-30T07:33:42;9.32;;;3.47;;
41629;SDS011;27322;49.488;8.480;2023-09-30T07:36:07;7.65;;;2.90;;
41629;SDS011;27322;49.488;8.480;2023-09-30T07:38:33;6.85;;;2.78;;
41629;SDS011;27322;49.488;8.480;2023-09-30T07:41:00;6.22;;;2.70;;
41629;SDS011;27322;49.488;8.480;2023-09-30T07:43:27;8.02;;;3.15;;
41629;SDS011;27322;49.488;8.480;2023-09-30T07:45:53;9.45;;;3.25;;
41629;SDS011;27322;49.488;8.480;2023-09-30T07:48:19;9.82;;;3.58;;
41629;SDS011;27322;49.488;8.480;2023-09-30T07:50:44;9.32;;;3.10;;
41629;SDS011;27322;49.488;8.480;2023-09-30T07:53:12;9.20;;;3.13;;
41629;SDS011;27322;49.488;8.480;2023-09-30T07:55:37;7.80;;;3.20;;
41629;SDS011;27322;49.488;8.480;2023-09-30T07:58:04;9.20;;;3.00;;
41629;SDS011;27322;49.488;8.480;2023-09-30T08:00:30;7.72;;;3.22;;
41629;SDS011;27322;49.488;8.480;2023-09-30T08:02:55;6.15;;;2.47;;
41629;SDS011;27322;49.488;8.480;2023-09-30T08:05:21;9.90;;;2.70;;
41629;SDS011;27322;49.488;8.480;2023-09-30T08:07:47;7.40;;;2.90;;
41629;SDS011;27322;49.488;8.480;2023-09-30T08:10:12;6.05;;;2.50;;
41629;SDS011;27322;49.488;8.480;2023-09-30T08:12:41;10.40;;;2.80;;
41629;SDS011;27322;49.488;8.480;2023-09-30T08:15:07;8.40;;;3.08;;
41629;SDS011;27322;49.488;8.480;2023-09-30T08:17:33;7.47;;;2.60;;
41629;SDS011;27322;49.488;8.480;2023-09-30T08:19:59;7.70;;;2.67;;
41629;SDS011;27322;49.488;8.480;2023-09-30T08:22:25;8.85;;;2.78;;
41629;SDS011;27322;49.488;8.480;2023-09-30T08:24:53;6.38;;;2.40;;
41629;SDS011;27322;49.488;8.480;2023-09-30T08:27:19;9.30;;;3.17;;
41629;SDS011;27322;49.488;8.480;2023-09-30T08:29:45;6.60;;;2.40;;
41629;SDS011;27322;49.488;8.480;2023-09-30T08:32:11;8.38;;;2.80;;
41629;SDS011;27322;49.488;8.480;2023-09-30T08:34:36;7.85;;;3.22;;
41629;SDS011;27322;49.488;8.480;2023-09-30T08:37:02;7.45;;;2.70;;
41629;SDS011;27322;49.488;8.480;2023-09-30T08:39:27;6.28;;;2.30;;
41629;SDS011;27322;49.488;8.480;2023-09-30T08:41:54;5.35;;;2.10;;
41629;SDS011;27322;49.488;8.480;2023-09-30T08:44:20;8.32;;;2.78;;
41629;SDS011;27322;49.488;8.480;2023-09-30T08:46:46;5.70;;;1.90;;
41629;SDS011;27322;49.488;8.480;2023-09-30T08:49:12;6.38;;;2.35;;
41629;SDS011;27322;49.488;8.480;2023-09-30T08:51:40;8.05;;;2.53;;
41629;SDS011;27322;49.488;8.480;2023-09-30T08:54:05;7.82;;;2.58;;
41629;SDS011;27322;49.488;8.480;2023-09-30T08:56:32;6.75;;;2.70;;
41629;SDS011;27322;49.488;8.480;2023-09-30T08:58:58;9.07;;;2.60;;
41629;SDS011;27322;49.488;8.480;2023-09-30T09:01:26;7.70;;;2.47;;
41629;SDS011;27322;49.488;8.480;2023-09-30T09:03:52;6.80;;;2.88;;
41629;SDS011;27322;49.488;8.480;2023-09-30T09:06:19;8.27;;;3.10;;
41629;SDS011;27322;49.488;8.480;2023-09-30T09:08:49;7.85;;;3.75;;
41629;SDS011;27322;49.488;8.480;2023-09-30T09:11:15;10.45;;;3.97;;
41629;SDS011;27322;49.488;8.480;2023-09-30T09:13:46;7.55;;;3.42;;
41629;SDS011;27322;49.488;8.480;2023-09-30T09:16:18;7.30;;;2.90;;
41629;SDS011;27322;49.488;8.480;2023-09-30T09:18:44;6.70;;;3.38;;
41629;SDS011;27322;49.488;8.480;2023-09-30T09:21:15;11.32;;;3.13;;
41629;SDS011;27322;49.488;8.480;2023-09-30T09:23:47;9.55;;;3.75;;
41629;SDS011;27322;49.488;8.480;2023-09-30T09:26:30;7.32;;;3.20;;
41629;SDS011;27322;49.488;8.480;2023-09-30T09:29:03;7.45;;;2.83;;
41629;SDS011;27322;49.488;8.480;2023-09-30T09:31:31;8.50;;;2.90;;
41629;SDS011;27322;49.488;8.480;2023-09-30T09:33:59;8.93;;;3.33;;
41629;SDS011;27322;49.488;8.480;2023-09-30T09:36:38;8.40;;;3.70;;
41629;SDS011;27322;49.488;8.480;2023-09-30T09:39:05;8.52;;;3.03;;
41629;SDS011;27322;49.488;8.480;2023-09-30T09:41:31;8.40;;;3.20;;
41629;SDS011;27322;49.488;8.480;2023-09-30T09:43:58;9.20;;;3.78;;
41629;SDS011;27322;49.488;8.480;2023-09-30T09:46:24;8.25;;;3.38;;
41629;SDS011;27322;49.488;8.480;2023-09-30T09:48:52;9.02;;;3.75;;
41629;SDS011;27322;49.488;8.480;2023-09-30T09:51:19;10.98;;;3.92;;
41629;SDS011;27322;49.488;8.480;2023-09-30T09:53:46;7.97;;;3.70;;
41629;SDS011;27322;49.488;8.480;2023-09-30T09:56:14;9.15;;;3.72;;
41629;SDS011;27322;49.488;8.480;2023-09-30T09:58:41;6.47;;;3.40;;
41629;SDS011;27322;49.488;8.480;2023-09-30T10:01:08;8.38;;;3.50;;
41629;SDS011;27322;49.488;8.480;2023-09-30T10:03:35;6.65;;;3.47;;
41629;SDS011;27322;49.488;8.480;2023-09-30T10:06:03;10.35;;;4.25;;
41629;SDS011;27322;49.488;8.480;2023-09-30T10:08:34;9.85;;;4.25;;
41629;SDS011;27322;49.488;8.480;2023-09-30T10:11:05;10.82;;;4.35;;
41629;SDS011;27322;49.488;8.480;2023-09-30T10:21:37;7.72;;;2.80;;
41629;SDS011;27322;49.488;8.480;2023-09-30T10:27:27;6.55;;;2.72;;
41629;SDS011;27322;49.488;8.480;2023-09-30T10:40:47;6.30;;;2.45;;
41629;SDS011;27322;49.488;8.480;2023-09-30T10:46:43;9.30;;;3.40;;
41629;SDS011;27322;49.488;8.480;2023-09-30T10:48:51;8.95;;;3.22;;
41629;SDS011;27322;49.488;8.480;2023-09-30T10:51:17;9.68;;;3.13;;
41629;SDS011;27322;49.488;8.480;2023-09-30T10:53:47;8.70;;;2.85;;
41629;SDS011;27322;49.488;8.480;2023-09-30T10:56:16;6.82;;;2.47;;
41629;SDS011;27322;49.488;8.480;2023-09-30T10:58:43;7.10;;;2.67;;
41629;SDS011;27322;49.488;8.480;2023-09-30T11:01:20;8.27;;;2.85;;
41629;SDS011;27322;49.488;8.480;2023-09-30T11:03:47;8.13;;;2.60;;
41629;SDS011;27322;49.488;8.480;2023-09-30T11:06:19;7.40;;;2.53;;
41629;SDS011;27322;49.488;8.480;2023-09-30T11:11:12;11.30;;;3.63;;
41629;SDS011;27322;49.488;8.480;2023-09-30T11:13:39;9.63;;;3.25;;
41629;SDS011;27322;49.488;8.480;2023-09-30T11:16:05;7.07;;;2.88;;
41629;SDS011;27322;49.488;8.480;2023-09-30T11:18:31;7.10;;;2.80;;
41629;SDS011;27322;49.488;8.480;2023-09-30T11:21:10;6.55;;;2.60;;
41629;SDS011;27322;49.488;8.480;2023-09-30T11:23:37;8.77;;;2.60;;
41629;SDS011;27322;49.488;8.480;2023-09-30T11:26:04;7.43;;;1.95;;
41629;SDS011;27322;49.488;8.480;2023-09-30T11:28:37;6.43;;;1.95;;
41629;SDS011;27322;49.488;8.480;2023-09-30T11:31:07;4.50;;;1.70;;
41629;SDS011;27322;49.488;8.480;2023-09-30T11:33:53;5.88;;;2.10;;
41629;SDS011;27322;49.488;8.480;2023-09-30T11:36:21;8.32;;;2.30;;
41629;SDS011;27322;49.488;8.480;2023-09-30T11:38:48;4.90;;;1.98;;
41629;SDS011;27322;49.488;8.480;2023-09-30T11:41:15;5.78;;;2.22;;
41629;SDS011;27322;49.488;8.480;2023-09-30T11:44:05;10.05;;;3.10;;
41629;SDS011;27322;49.488;8.480;2023-09-30T11:46:33;8.43;;;3.00;;
41629;SDS011;27322;49.488;8.480;2023-09-30T11:49:39;8.68;;;3.00;;
41629;SDS011;27322;49.488;8.480;2023-09-30T11:52:10;6.25;;;2.47;;
41629;SDS011;27322;49.488;8.480;2023-09-30T11:54:41;6.32;;;2.20;;
41629;SDS011;27322;49.488;8.480;2023-09-30T11:57:19;5.22;;;1.88;;
41629;SDS011;27322;49.488;8.480;2023-09-30T11:59:45;6.47;;;2.05;;
41629;SDS011;27322;49.488;8.480;2023-09-30T12:02:11;6.07;;;2.03;;
41629;SDS011;27322;49.488;8.480;2023-09-30T12:04:39;6.32;;;2.00;;
41629;SDS011;27322;49.488;8.480;2023-09-30T12:07:05;6.60;;;2.60;;
41629;SDS011;27322;49.488;8.480;2023-09-30T12:09:32;8.57;;;3.03;;
41629;SDS011;27322;49.488;8.480;2023-09-30T12:12:00;7.38;;;2.38;;
41629;SDS011;27322;49.488;8.480;2023-09-30T12:14:26;9.80;;;3.17;;
41629;SDS011;27322;49.488;8.480;2023-09-30T12:16:51;6.53;;;2.60;;
41629;SDS011;27322;49.488;8.480;2023-09-30T12:19:17;7.35;;;2.40;;
41629;SDS011;27322;49.488;8.480;2023-09-30T12:21:43;9.00;;;2.70;;
41629;SDS011;27322;49.488;8.480;2023-09-30T12:24:12;7.10;;;2.60;;
41629;SDS011;27322;49.488;8.480;2023-09-30T12:26:41;9.32;;;2.63;;
41629;SDS011;27322;49.488;8.480;2023-09-30T12:29:13;7.63;;;2.97;;
41629;SDS011;27322;49.488;8.480;2023-09-30T12:31:45;5.85;;;2.28;;
41629;SDS011;27322;49.488;8.480;2023-09-30T12:34:12;7.35;;;2.38;;
41629;SDS011;27322;49.488;8.480;2023-09-30T12:36:38;9.10;;;2.65;;
41629;SDS011;27322;49.488;8.480;2023-09-30T12:39:05;7.13;;;2.60;;
41629;SDS011;27322;49.488;8.480;2023-09-30T12:41:38;8.65;;;2.50;;
41629;SDS011;27322;49.488;8.480;2023-09-30T12:44:05;5.93;;;2.55;;
41629;SDS011;27322;49.488;8.480;2023-09-30T12:46:31;7.60;;;2.45;;
41629;SDS011;27322;49.488;8.480;2023-09-30T12:49:01;6.88;;;1.98;;
41629;SDS011;27322;49.488;8.480;2023-09-30T12:51:27;8.15;;;2.80;;
41629;SDS011;27322;49.488;8.480;2023-09-30T12:53:53;6.35;;;2.33;;
41629;SDS011;27322;49.488;8.480;2023-09-30T12:56:18;8.60;;;2.67;;
41629;SDS011;27322;49.488;8.480;2023-09-30T12:58:44;6.65;;;2.50;;
41629;SDS011;27322;49.488;8.480;2023-09-30T13:01:10;8.27;;;2.78;;
41629;SDS011;27322;49.488;8.480;2023-09-30T13:03:36;7.90;;;2.55;;
41629;SDS011;27322;49.488;8.480;2023-09-30T13:06:02;7.30;;;2.50;;
41629;SDS011;27322;49.488;8.480;2023-09-30T13:08:28;7.30;;;2.75;;
41629;SDS011;27322;49.488;8.480;2023-09-30T13:10:58;8.15;;;2.72;;
41629;SDS011;27322;49.488;8.480;2023-09-30T13:13:28;10.25;;;2.67;;
41629;SDS011;27322;49.488;8.480;2023-09-30T13:15:56;7.38;;;2.47;;
41629;SDS011;27322;49.488;8.480;2023-09-30T13:18:25;8.52;;;2.90;;
41629;SDS011;27322;49.488;8.480;2023-09-30T13:20:50;8.55;;;2.60;;
41629;SDS011;27322;49.488;8.480;2023-09-30T13:23:17;9.38;;;3.58;;
41629;SDS011;27322;49.488;8.480;2023-09-30T13:25:43;8.27;;;2.40;;
41629;SDS011;27322;49.488;8.480;2023-09-30T13:28:09;8.57;;;2.40;;
41629;SDS011;27322;49.488;8.480;2023-09-30T13:30:38;8.77;;;2.78;;
41629;SDS011;27322;49.488;8.480;2023-09-30T13:33:04;7.47;;;2.88;;
41629;SDS011;27322;49.488;8.480;2023-09-30T13:35:30;6.75;;;2.55;;
41629;SDS011;27322;49.488;8.480;2023-09-30T13:37:56;7.40;;;2.47;;
41629;SDS011;27322;49.488;8.480;2023-09-30T13:40:21;7.40;;;2.25;;
41629;SDS011;27322;49.488;8.480;2023-09-30T13:42:47;6.47;;;2.42;;
41629;SDS011;27322;49.488;8.480;2023-09-30T13:45:12;8.32;;;2.97;;
41629;SDS011;27322;49.488;8.480;2023-09-30T13:47:38;10.82;;;3.00;;
41629;SDS011;27322;49.488;8.480;2023-09-30T13:50:04;7.95;;;2.63;;
41629;SDS011;27322;49.488;8.480;2023-09-30T13:52:32;9.48;;;3.00;;
41629;SDS011;27322;49.488;8.480;2023-09-30T13:54:59;8.00;;;2.70;;
41629;SDS011;27322;49.488;8.480;2023-09-30T13:57:25;7.53;;;2.20;;
41629;SDS011;27322;49.488;8.480;2023-09-30T13:59:50;7.20;;;2.35;;
41629;SDS011;27322;49.488;8.480;2023-09-30T14:02:16;6.97;;;2.30;;
41629;SDS011;27322;49.488;8.480;2023-09-30T14:04:41;6.40;;;2.33;;
41629;SDS011;27322;49.488;8.480;2023-09-30T14:07:07;7.10;;;2.88;;
41629;SDS011;27322;49.488;8.480;2023-09-30T14:09:33;6.03;;;2.20;;
41629;SDS011;27322;49.488;8.480;2023-09-30T14:11:59;7.53;;;2.20;;
41629;SDS011;27322;49.488;8.480;2023-09-30T14:14:25;7.45;;;2.38;;
41629;SDS011;27322;49.488;8.480;2023-09-30T14:16:50;7.35;;;2.92;;
41629;SDS011;27322;49.488;8.480;2023-09-30T14:19:16;6.80;;;2.33;;
41629;SDS011;27322;49.488;8.480;2023-09-30T14:21:42;6.38;;;2.47;;
41629;SDS011;27322;49.488;8.480;2023-09-30T14:24:08;6.07;;;2.20;;
41629;SDS011;27322;49.488;8.480;2023-09-30T14:26:33;8.13;;;2.60;;
41629;SDS011;27322;49.488;8.480;2023-09-30T14:28:59;6.63;;;2.80;;
41629;SDS011;27322;49.488;8.480;2023-09-30T14:31:25;7.47;;;2.67;;
41629;SDS011;27322;49.488;8.480;2023-09-30T14:33:51;6.68;;;2.58;;
41629;SDS011;27322;49.488;8.480;2023-09-30T14:36:17;9.68;;;2.80;;
41629;SDS011;27322;49.488;8.480;2023-09-30T14:38:44;6.55;;;2.42;;
41629;SDS011;27322;49.488;8.480;2023-09-30T14:41:10;8.35;;;2.85;;
41629;SDS011;27322;49.488;8.480;2023-09-30T14:43:37;7.70;;;2.65;;
41629;SDS011;27322;49.488;8.480;2023-09-30T14:46:06;7.72;;;2.75;;
41629;SDS011;27322;49.488;8.480;2023-09-30T14:48:33;6.65;;;2.70;;
41629;SDS011;27322;49.488;8.480;2023-09-30T14:50:59;6.97;;;2.40;;
41629;SDS011;27322;49.488;8.480;2023-09-30T14:53:25;8.23;;;2.42;;
41629;SDS011;27322;49.488;8.480;2023-09-30T14:55:50;8.35;;;2.88;;
41629;SDS011;27322;49.488;8.480;2023-09-30T14:58:16;9.77;;;2.45;;
41629;SDS011;27322;49.488;8.480;2023-09-30T15:00:42;7.53;;;2.58;;
41629;SDS011;27322;49.488;8.480;2023-09-30T15:03:08;7.18;;;2.72;;
41629;SDS011;27322;49.488;8.480;2023-09-30T15:05:33;7.82;;;2.85;;
41629;SDS011;27322;49.488;8.480;2023-09-30T15:07:59;7.47;;;2.25;;
41629;SDS011;27322;49.488;8.480;2023-09-30T15:10:27;6.30;;;2.47;;
41629;SDS011;27322;49.488;8.480;2023-09-30T15:12:53;9.15;;;2.70;;
41629;SDS011;27322;49.488;8.480;2023-09-30T15:15:19;6.68;;;2.50;;